sensor_id;sensor_type;location;lat;lon;timestamp;pressure;altitude;pressure_sealevel;temperature;humidity
32298;BME280;18782;48.984;8.548;2022-08-19T00:01:25;99528.69;;;23.02;63.71
32298;BME280;18782;48.984;8.548;2022-08-19T00:03:56;99535.88;;;22.97;63.35
32298;BME280;18782;48.984;8.548;2022-08-19T00:06:24;99535.75;;;23.00;63.53
32298;BME280;18782;48.984;8.548;2022-08-19T00:08:51;99534.81;;;23.03;63.86
32298;BME280;18782;48.984;8.548;2022-08-19T00:11:19;99541.69;;;23.05;63.51
32298;BME280;18782;48.984;8.548;2022-08-19T00:13:52;99536.44;;;23.05;63.77
32298;BME280;18782;48.984;8.548;2022-08-19T00:16:23;99553.00;;;23.07;63.52
32298;BME280;18782;48.984;8.548;2022-08-19T00:18:52;99547.06;;;23.02;64.06
32298;BME280;18782;48.984;8.548;2022-08-19T00:21:21;99547.22;;;22.98;64.29
32298;BME280;18782;48.984;8.548;2022-08-19T00:23:50;99547.38;;;22.93;64.22
32298;BME280;18782;48.984;8.548;2022-08-19T00:26:17;99541.56;;;22.82;64.28
32298;BME280;18782;48.984;8.548;2022-08-19T00:28:45;99545.06;;;22.81;64.51
32298;BME280;18782;48.984;8.548;2022-08-19T00:31:13;99543.28;;;22.83;64.96
32298;BME280;18782;48.984;8.548;2022-08-19T00:33:43;99541.56;;;22.82;64.95
32298;BME280;18782;48.984;8.548;2022-08-19T00:36:12;99544.19;;;22.82;65.00
32298;BME280;18782;48.984;8.548;2022-08-19T00:38:39;99544.13;;;22.83;65.18
32298;BME280;18782;48.984;8.548;2022-08-19T00:41:09;99544.22;;;22.80;65.22
32298;BME280;18782;48.984;8.548;2022-08-19T00:43:37;99540.72;;;22.81;65.05
32298;BME280;18782;48.984;8.548;2022-08-19T00:46:06;99538.03;;;22.83;65.31
32298;BME280;18782;48.984;8.548;2022-08-19T00:48:35;99529.06;;;22.90;64.86
32298;BME280;18782;48.984;8.548;2022-08-19T00:51:05;99507.28;;;22.86;65.13
32298;BME280;18782;48.984;8.548;2022-08-19T00:53:33;99493.31;;;22.86;65.41
32298;BME280;18782;48.984;8.548;2022-08-19T00:56:02;99486.28;;;22.88;65.26
32298;BME280;18782;48.984;8.548;2022-08-19T00:58:33;99505.78;;;22.79;65.19
32298;BME280;18782;48.984;8.548;2022-08-19T01:01:02;99518.31;;;22.71;65.41
32298;BME280;18782;48.984;8.548;2022-08-19T01:03:30;99528.88;;;22.68;65.86
32298;BME280;18782;48.984;8.548;2022-08-19T01:06:19;99534.00;;;22.73;65.80
32298;BME280;18782;48.984;8.548;2022-08-19T01:08:47;99528.69;;;22.74;65.90
32298;BME280;18782;48.984;8.548;2022-08-19T01:11:16;99531.25;;;22.76;66.36
32298;BME280;18782;48.984;8.548;2022-08-19T01:13:44;99531.25;;;22.76;65.87
32298;BME280;18782;48.984;8.548;2022-08-19T01:16:17;99540.88;;;22.75;66.18
32298;BME280;18782;48.984;8.548;2022-08-19T01:18:46;99544.47;;;22.73;66.44
32298;BME280;18782;48.984;8.548;2022-08-19T01:21:18;99532.41;;;22.67;66.32
32298;BME280;18782;48.984;8.548;2022-08-19T01:23:50;99519.44;;;22.62;66.67
32298;BME280;18782;48.984;8.548;2022-08-19T01:26:20;99523.25;;;22.52;67.30
32298;BME280;18782;48.984;8.548;2022-08-19T01:28:51;99519.91;;;22.47;67.02
32298;BME280;18782;48.984;8.548;2022-08-19T01:31:27;99528.69;;;22.46;67.51
32298;BME280;18782;48.984;8.548;2022-08-19T01:33:58;99522.41;;;22.52;67.13
32298;BME280;18782;48.984;8.548;2022-08-19T01:36:29;99523.25;;;22.52;67.40
32298;BME280;18782;48.984;8.548;2022-08-19T01:39:00;99521.44;;;22.54;67.50
32298;BME280;18782;48.984;8.548;2022-08-19T01:41:27;99525.75;;;22.57;66.90
32298;BME280;18782;48.984;8.548;2022-08-19T01:43:55;99517.81;;;22.58;66.70
32298;BME280;18782;48.984;8.548;2022-08-19T01:46:44;99517.53;;;22.67;66.88
32298;BME280;18782;48.984;8.548;2022-08-19T01:49:12;99508.75;;;22.69;66.84
32298;BME280;18782;48.984;8.548;2022-08-19T01:51:39;99514.13;;;22.64;66.45
32298;BME280;18782;48.984;8.548;2022-08-19T01:54:10;99522.97;;;22.61;66.08
32298;BME280;18782;48.984;8.548;2022-08-19T01:56:38;99529.94;;;22.62;66.75
32298;BME280;18782;48.984;8.548;2022-08-19T01:59:10;99523.25;;;22.52;66.72
32298;BME280;18782;48.984;8.548;2022-08-19T02:01:40;99523.47;;;22.46;67.31
32298;BME280;18782;48.984;8.548;2022-08-19T02:04:08;99529.78;;;22.39;67.95
32298;BME280;18782;48.984;8.548;2022-08-19T02:06:35;99529.28;;;22.26;68.20
32298;BME280;18782;48.984;8.548;2022-08-19T02:09:04;99524.09;;;22.25;68.85
32298;BME280;18782;48.984;8.548;2022-08-19T02:11:35;99526.75;;;22.23;69.24
32298;BME280;18782;48.984;8.548;2022-08-19T02:14:06;99524.97;;;22.25;69.53
32298;BME280;18782;48.984;8.548;2022-08-19T02:16:35;99525.63;;;22.32;69.59
32298;BME280;18782;48.984;8.548;2022-08-19T02:19:04;99523.09;;;22.29;69.97
32298;BME280;18782;48.984;8.548;2022-08-19T02:21:32;99525.91;;;22.23;70.93
32298;BME280;18782;48.984;8.548;2022-08-19T02:24:00;99527.59;;;22.24;70.71
32298;BME280;18782;48.984;8.548;2022-08-19T02:26:28;99532.78;;;22.27;71.39
32298;BME280;18782;48.984;8.548;2022-08-19T02:28:57;99535.59;;;22.21;72.65
32298;BME280;18782;48.984;8.548;2022-08-19T02:31:25;99527.72;;;22.21;72.25
32298;BME280;18782;48.984;8.548;2022-08-19T02:33:54;99527.72;;;22.21;72.63
32298;BME280;18782;48.984;8.548;2022-08-19T02:36:23;99525.09;;;22.21;72.64
32298;BME280;18782;48.984;8.548;2022-08-19T02:38:52;99531.34;;;22.17;72.93
32298;BME280;18782;48.984;8.548;2022-08-19T02:41:23;99526.00;;;22.20;72.69
32298;BME280;18782;48.984;8.548;2022-08-19T02:43:52;99531.88;;;22.28;72.32
32298;BME280;18782;48.984;8.548;2022-08-19T02:46:42;99536.13;;;22.32;72.27
32298;BME280;18782;48.984;8.548;2022-08-19T02:49:11;99530.78;;;22.35;72.45
32298;BME280;18782;48.984;8.548;2022-08-19T02:51:41;99530.69;;;22.38;71.97
32298;BME280;18782;48.984;8.548;2022-08-19T02:54:11;99528.06;;;22.38;72.57
32298;BME280;18782;48.984;8.548;2022-08-19T02:56:41;99527.25;;;22.36;72.22
32298;BME280;18782;48.984;8.548;2022-08-19T02:59:09;99527.34;;;22.33;72.83
32298;BME280;18782;48.984;8.548;2022-08-19T03:01:38;99518.69;;;22.31;73.18
32298;BME280;18782;48.984;8.548;2022-08-19T03:04:12;99516.97;;;22.30;73.14
32298;BME280;18782;48.984;8.548;2022-08-19T03:06:42;99512.53;;;22.32;73.01
32298;BME280;18782;48.984;8.548;2022-08-19T03:09:10;99525.72;;;22.29;73.77
32298;BME280;18782;48.984;8.548;2022-08-19T03:11:39;99527.06;;;22.14;75.18
32298;BME280;18782;48.984;8.548;2022-08-19T03:14:08;99531.84;;;21.98;76.24
32298;BME280;18782;48.984;8.548;2022-08-19T03:16:41;99533.00;;;21.88;76.28
32298;BME280;18782;48.984;8.548;2022-08-19T03:19:11;99537.78;;;21.74;77.63
32298;BME280;18782;48.984;8.548;2022-08-19T03:21:39;99534.00;;;21.84;76.36
32298;BME280;18782;48.984;8.548;2022-08-19T03:24:08;99539.13;;;21.87;76.15
32298;BME280;18782;48.984;8.548;2022-08-19T03:26:39;99540.78;;;21.91;76.44
32298;BME280;18782;48.984;8.548;2022-08-19T03:29:07;99543.38;;;21.91;76.34
32298;BME280;18782;48.984;8.548;2022-08-19T03:31:40;99542.66;;;21.86;76.55
32298;BME280;18782;48.984;8.548;2022-08-19T03:34:21;99534.16;;;21.78;77.22
32298;BME280;18782;48.984;8.548;2022-08-19T03:36:53;99540.25;;;21.78;76.95
32298;BME280;18782;48.984;8.548;2022-08-19T03:39:22;99534.06;;;21.81;76.97
32298;BME280;18782;48.984;8.548;2022-08-19T03:41:53;99532.97;;;21.89;76.86
32298;BME280;18782;48.984;8.548;2022-08-19T03:44:43;99532.53;;;22.05;75.89
32298;BME280;18782;48.984;8.548;2022-08-19T03:47:12;99526.44;;;22.04;76.25
32298;BME280;18782;48.984;8.548;2022-08-19T03:49:44;99526.28;;;22.10;75.76
32298;BME280;18782;48.984;8.548;2022-08-19T03:52:12;99527.97;;;22.11;76.02
32298;BME280;18782;48.984;8.548;2022-08-19T03:54:40;99541.03;;;22.13;75.78
32298;BME280;18782;48.984;8.548;2022-08-19T03:57:08;99533.22;;;22.11;75.98
32298;BME280;18782;48.984;8.548;2022-08-19T03:59:37;99532.38;;;22.09;76.08
32298;BME280;18782;48.984;8.548;2022-08-19T04:02:07;99529.69;;;21.81;77.24
32298;BME280;18782;48.984;8.548;2022-08-19T04:04:36;99524.28;;;21.56;79.25
32298;BME280;18782;48.984;8.548;2022-08-19T04:07:06;99517.00;;;21.68;78.22
32298;BME280;18782;48.984;8.548;2022-08-19T04:09:35;99526.75;;;21.61;78.04
32298;BME280;18782;48.984;8.548;2022-08-19T04:12:04;99538.69;;;21.73;77.50
32298;BME280;18782;48.984;8.548;2022-08-19T04:14:33;99546.44;;;21.76;77.87
32298;BME280;18782;48.984;8.548;2022-08-19T04:17:02;99555.53;;;21.62;79.28
32298;BME280;18782;48.984;8.548;2022-08-19T04:19:31;99559.41;;;21.48;80.39
32298;BME280;18782;48.984;8.548;2022-08-19T04:21:59;99556.91;;;21.43;80.86
32298;BME280;18782;48.984;8.548;2022-08-19T04:24:28;99552.25;;;21.54;79.68
32298;BME280;18782;48.984;8.548;2022-08-19T04:26:56;99554.00;;;21.54;79.48
32298;BME280;18782;48.984;8.548;2022-08-19T04:29:24;99545.53;;;21.44;80.66
32298;BME280;18782;48.984;8.548;2022-08-19T04:31:54;99545.63;;;21.41;80.74
32298;BME280;18782;48.984;8.548;2022-08-19T04:34:24;99549.97;;;21.42;80.21
32298;BME280;18782;48.984;8.548;2022-08-19T04:36:54;99556.91;;;21.43;79.71
32298;BME280;18782;48.984;8.548;2022-08-19T04:39:24;99556.13;;;21.41;78.61
32298;BME280;18782;48.984;8.548;2022-08-19T04:42:13;99563.97;;;21.41;78.68
32298;BME280;18782;48.984;8.548;2022-08-19T04:44:59;99561.25;;;21.44;78.61
32298;BME280;18782;48.984;8.548;2022-08-19T04:47:27;99555.38;;;21.36;78.60
32298;BME280;18782;48.984;8.548;2022-08-19T04:50:15;99556.69;;;21.17;79.77
32298;BME280;18782;48.984;8.548;2022-08-19T04:52:44;99551.47;;;21.17;80.11
32298;BME280;18782;48.984;8.548;2022-08-19T04:55:12;99558.00;;;21.36;79.15
32298;BME280;18782;48.984;8.548;2022-08-19T04:57:42;99557.66;;;21.48;78.62
32298;BME280;18782;48.984;8.548;2022-08-19T05:00:10;99565.13;;;21.63;77.79
32298;BME280;18782;48.984;8.548;2022-08-19T05:02:38;99563.69;;;21.52;78.83
32298;BME280;18782;48.984;8.548;2022-08-19T05:05:07;99557.44;;;21.57;78.63
32298;BME280;18782;48.984;8.548;2022-08-19T05:07:36;99560.16;;;21.53;79.24
32298;BME280;18782;48.984;8.548;2022-08-19T05:10:05;99555.78;;;21.53;79.06
32298;BME280;18782;48.984;8.548;2022-08-19T05:12:33;99561.25;;;21.44;80.28
32298;BME280;18782;48.984;8.548;2022-08-19T05:15:04;99563.13;;;21.39;80.59
32298;BME280;18782;48.984;8.548;2022-08-19T05:17:32;99566.66;;;21.38;80.18
32298;BME280;18782;48.984;8.548;2022-08-19T05:20:06;99569.16;;;21.43;80.31
32298;BME280;18782;48.984;8.548;2022-08-19T05:22:52;99574.66;;;21.32;80.37
32298;BME280;18782;48.984;8.548;2022-08-19T05:25:21;99572.09;;;21.29;80.37
32298;BME280;18782;48.984;8.548;2022-08-19T05:27:49;99577.91;;;21.42;79.79
32298;BME280;18782;48.984;8.548;2022-08-19T05:30:18;99587.13;;;21.56;78.64
32298;BME280;18782;48.984;8.548;2022-08-19T05:33:06;99601.84;;;21.60;78.64
32298;BME280;18782;48.984;8.548;2022-08-19T05:35:36;99606.03;;;21.68;77.53
32298;BME280;18782;48.984;8.548;2022-08-19T05:38:04;99614.47;;;21.46;78.33
32298;BME280;18782;48.984;8.548;2022-08-19T05:40:33;99617.31;;;21.37;78.44
32298;BME280;18782;48.984;8.548;2022-08-19T05:43:02;99631.28;;;21.36;79.09
32298;BME280;18782;48.984;8.548;2022-08-19T05:45:32;99633.06;;;21.34;78.71
32298;BME280;18782;48.984;8.548;2022-08-19T05:48:00;99626.06;;;21.36;78.83
32298;BME280;18782;48.984;8.548;2022-08-19T05:50:27;99634.78;;;21.36;78.72
32298;BME280;18782;48.984;8.548;2022-08-19T05:52:56;99634.72;;;21.38;78.92
32298;BME280;18782;48.984;8.548;2022-08-19T05:55:24;99645.25;;;21.35;78.83
32298;BME280;18782;48.984;8.548;2022-08-19T05:57:51;99650.44;;;21.38;78.64
32298;BME280;18782;48.984;8.548;2022-08-19T06:00:19;99645.31;;;21.33;78.86
32298;BME280;18782;48.984;8.548;2022-08-19T06:02:51;99647.78;;;21.40;78.70
32298;BME280;18782;48.984;8.548;2022-08-19T06:05:21;99643.31;;;21.43;78.74
32298;BME280;18782;48.984;8.548;2022-08-19T06:07:48;99645.50;;;21.61;78.08
32298;BME280;18782;48.984;8.548;2022-08-19T06:10:16;99635.44;;;21.79;77.65
32298;BME280;18782;48.984;8.548;2022-08-19T06:12:44;99647.19;;;21.97;76.89
32298;BME280;18782;48.984;8.548;2022-08-19T06:15:13;99643.53;;;22.02;76.42
32298;BME280;18782;48.984;8.548;2022-08-19T06:17:41;99650.59;;;22.00;74.32
32298;BME280;18782;48.984;8.548;2022-08-19T06:20:14;99645.34;;;22.00;74.52
32298;BME280;18782;48.984;8.548;2022-08-19T06:22:55;99645.28;;;22.03;75.11
32298;BME280;18782;48.984;8.548;2022-08-19T06:25:22;99646.00;;;22.08;74.19
32298;BME280;18782;48.984;8.548;2022-08-19T06:27:55;99648.38;;;22.18;74.47
32298;BME280;18782;48.984;8.548;2022-08-19T06:30:40;99651.75;;;22.23;73.30
32298;BME280;18782;48.984;8.548;2022-08-19T06:33:08;99649.84;;;22.28;73.13
32298;BME280;18782;48.984;8.548;2022-08-19T06:35:40;99656.75;;;22.32;71.16
32298;BME280;18782;48.984;8.548;2022-08-19T06:38:08;99652.81;;;22.16;71.20
32298;BME280;18782;48.984;8.548;2022-08-19T06:40:35;99652.69;;;22.20;70.04
32298;BME280;18782;48.984;8.548;2022-08-19T06:43:04;99657.25;;;22.13;70.70
32298;BME280;18782;48.984;8.548;2022-08-19T06:45:36;99664.56;;;22.33;71.48
32298;BME280;18782;48.984;8.548;2022-08-19T06:48:05;99653.69;;;22.47;71.36
32298;BME280;18782;48.984;8.548;2022-08-19T06:50:33;99655.94;;;22.59;71.43
32298;BME280;18782;48.984;8.548;2022-08-19T06:53:06;99645.19;;;22.69;69.03
32298;BME280;18782;48.984;8.548;2022-08-19T06:55:34;99639.94;;;22.69;69.59
32298;BME280;18782;48.984;8.548;2022-08-19T06:58:02;99639.94;;;22.69;70.59
32298;BME280;18782;48.984;8.548;2022-08-19T07:00:32;99646.81;;;22.73;69.79
32298;BME280;18782;48.984;8.548;2022-08-19T07:03:00;99650.03;;;22.82;69.19
32298;BME280;18782;48.984;8.548;2022-08-19T07:05:37;99652.22;;;22.96;67.78
32298;BME280;18782;48.984;8.548;2022-08-19T07:08:12;99656.50;;;23.00;65.82
32298;BME280;18782;48.984;8.548;2022-08-19T07:10:43;99656.50;;;23.00;66.48
32298;BME280;18782;48.984;8.548;2022-08-19T07:13:11;99659.25;;;22.96;67.87
32298;BME280;18782;48.984;8.548;2022-08-19T07:15:38;99664.94;;;22.80;69.18
32298;BME280;18782;48.984;8.548;2022-08-19T07:18:06;99660.38;;;22.87;68.97
32298;BME280;18782;48.984;8.548;2022-08-19T07:20:37;99658.09;;;22.75;69.94
32298;BME280;18782;48.984;8.548;2022-08-19T07:23:07;99657.06;;;22.80;68.83
32298;BME280;18782;48.984;8.548;2022-08-19T07:25:38;99658.59;;;22.89;68.79
32298;BME280;18782;48.984;8.548;2022-08-19T07:28:06;99661.84;;;22.97;69.24
32298;BME280;18782;48.984;8.548;2022-08-19T07:30:50;99658.13;;;23.04;67.89
32298;BME280;18782;48.984;8.548;2022-08-19T07:33:18;99652.28;;;23.23;66.38
32298;BME280;18782;48.984;8.548;2022-08-19T07:35:46;99659.06;;;23.30;65.54
32298;BME280;18782;48.984;8.548;2022-08-19T07:38:14;99666.59;;;23.40;65.54
32298;BME280;18782;48.984;8.548;2022-08-19T07:40:44;99657.72;;;23.44;64.70
32298;BME280;18782;48.984;8.548;2022-08-19T07:43:12;99670.50;;;23.55;64.57
32298;BME280;18782;48.984;8.548;2022-08-19T07:45:44;99667.53;;;23.66;64.32
32298;BME280;18782;48.984;8.548;2022-08-19T07:48:13;99663.94;;;23.68;63.78
32298;BME280;18782;48.984;8.548;2022-08-19T07:50:41;99674.16;;;23.78;62.52
32298;BME280;18782;48.984;8.548;2022-08-19T07:53:08;99671.19;;;23.60;61.63
32298;BME280;18782;48.984;8.548;2022-08-19T07:55:38;99666.69;;;23.65;62.83
32298;BME280;18782;48.984;8.548;2022-08-19T07:58:14;99670.09;;;23.67;61.86
32298;BME280;18782;48.984;8.548;2022-08-19T08:00:42;99670.09;;;23.67;62.19
32298;BME280;18782;48.984;8.548;2022-08-19T08:03:11;99671.56;;;23.76;62.53
32298;BME280;18782;48.984;8.548;2022-08-19T08:05:39;99673.13;;;23.82;61.33
32298;BME280;18782;48.984;8.548;2022-08-19T08:08:25;99660.56;;;23.90;61.15
32298;BME280;18782;48.984;8.548;2022-08-19T08:11:16;99664.44;;;24.05;60.80
32298;BME280;18782;48.984;8.548;2022-08-19T08:13:48;99668.94;;;24.01;59.97
32298;BME280;18782;48.984;8.548;2022-08-19T08:16:30;99674.00;;;24.07;60.52
32298;BME280;18782;48.984;8.548;2022-08-19T08:19:00;99671.03;;;24.16;60.15
32298;BME280;18782;48.984;8.548;2022-08-19T08:21:33;99664.16;;;24.37;60.52
32298;BME280;18782;48.984;8.548;2022-08-19T08:24:01;99673.88;;;24.60;60.22
32298;BME280;18782;48.984;8.548;2022-08-19T08:26:28;99667.09;;;24.53;58.64
32298;BME280;18782;48.984;8.548;2022-08-19T08:29:01;99671.97;;;24.40;58.41
32298;BME280;18782;48.984;8.548;2022-08-19T08:31:39;99665.72;;;24.43;59.91
32298;BME280;18782;48.984;8.548;2022-08-19T08:34:07;99675.97;;;24.51;59.65
32298;BME280;18782;48.984;8.548;2022-08-19T08:36:36;99682.78;;;24.56;59.58
32298;BME280;18782;48.984;8.548;2022-08-19T08:39:08;99683.81;;;24.76;59.06
32298;BME280;18782;48.984;8.548;2022-08-19T08:41:42;99683.75;;;24.77;57.91
32298;BME280;18782;48.984;8.548;2022-08-19T08:44:18;99674.28;;;24.95;58.04
32298;BME280;18782;48.984;8.548;2022-08-19T08:46:49;99680.72;;;25.11;57.46
32298;BME280;18782;48.984;8.548;2022-08-19T08:49:27;99678.88;;;25.13;56.95
32298;BME280;18782;48.984;8.548;2022-08-19T08:52:03;99672.00;;;25.31;56.84
32298;BME280;18782;48.984;8.548;2022-08-19T08:54:32;99669.06;;;25.39;57.32
32298;BME280;18782;48.984;8.548;2022-08-19T08:57:03;99672.00;;;25.53;55.87
32298;BME280;18782;48.984;8.548;2022-08-19T08:59:35;99667.31;;;25.82;56.22
32298;BME280;18782;48.984;8.548;2022-08-19T09:02:04;99667.84;;;26.10;55.52
32298;BME280;18782;48.984;8.548;2022-08-19T09:07:21;99672.16;;;26.32;53.08
32298;BME280;18782;48.984;8.548;2022-08-19T09:10:04;99676.78;;;26.47;53.58
32298;BME280;18782;48.984;8.548;2022-08-19T09:12:40;99676.22;;;26.59;52.47
32298;BME280;18782;48.984;8.548;2022-08-19T09:15:18;99680.81;;;26.74;52.68
32298;BME280;18782;48.984;8.548;2022-08-19T09:18:00;99677.78;;;26.82;51.82
32298;BME280;18782;48.984;8.548;2022-08-19T09:20:32;99680.38;;;26.84;51.20
32298;BME280;18782;48.984;8.548;2022-08-19T09:23:00;99668.09;;;26.64;51.08
32298;BME280;18782;48.984;8.548;2022-08-19T09:25:28;99673.78;;;26.54;50.94
32298;BME280;18782;48.984;8.548;2022-08-19T09:27:57;99677.97;;;26.19;51.82
32298;BME280;18782;48.984;8.548;2022-08-19T09:30:41;99672.81;;;26.37;51.93
32298;BME280;18782;48.984;8.548;2022-08-19T09:33:09;99663.97;;;26.38;51.46
32298;BME280;18782;48.984;8.548;2022-08-19T09:35:36;99661.84;;;26.25;51.85
32298;BME280;18782;48.984;8.548;2022-08-19T09:38:18;99661.72;;;26.28;52.67
32298;BME280;18782;48.984;8.548;2022-08-19T09:40:46;99649.75;;;26.21;51.48
32298;BME280;18782;48.984;8.548;2022-08-19T09:43:14;99656.38;;;26.50;50.71
32298;BME280;18782;48.984;8.548;2022-08-19T09:46:01;99659.63;;;26.37;51.12
32298;BME280;18782;48.984;8.548;2022-08-19T09:48:29;99650.53;;;26.44;51.07
32298;BME280;18782;48.984;8.548;2022-08-19T09:51:02;99661.59;;;26.52;51.19
32298;BME280;18782;48.984;8.548;2022-08-19T09:53:30;99663.97;;;26.58;51.27
32298;BME280;18782;48.984;8.548;2022-08-19T09:55:59;99664.22;;;26.71;51.35
32298;BME280;18782;48.984;8.548;2022-08-19T09:58:29;99661.94;;;26.82;50.45
32298;BME280;18782;48.984;8.548;2022-08-19T10:00:59;99662.03;;;26.80;50.47
32298;BME280;18782;48.984;8.548;2022-08-19T10:03:30;99664.59;;;26.82;50.08
32298;BME280;18782;48.984;8.548;2022-08-19T10:05:59;99672.78;;;26.57;50.42
32298;BME280;18782;48.984;8.548;2022-08-19T10:08:29;99665.94;;;26.72;51.25
32298;BME280;18782;48.984;8.548;2022-08-19T10:10:57;99676.22;;;26.78;50.17
32298;BME280;18782;48.984;8.548;2022-08-19T10:13:46;99680.09;;;27.09;49.70
32298;BME280;18782;48.984;8.548;2022-08-19T10:16:18;99673.09;;;27.26;48.71
32298;BME280;18782;48.984;8.548;2022-08-19T10:18:53;99669.19;;;27.34;49.46
32298;BME280;18782;48.984;8.548;2022-08-19T10:21:26;99668.88;;;27.40;49.32
32298;BME280;18782;48.984;8.548;2022-08-19T10:24:00;99670.31;;;27.47;49.19
32298;BME280;18782;48.984;8.548;2022-08-19T10:26:32;99669.53;;;27.45;48.65
32298;BME280;18782;48.984;8.548;2022-08-19T10:29:00;99664.72;;;27.53;48.32
32298;BME280;18782;48.984;8.548;2022-08-19T10:31:31;99653.97;;;27.56;47.51
32298;BME280;18782;48.984;8.548;2022-08-19T10:34:20;99653.56;;;27.82;47.90
32298;BME280;18782;48.984;8.548;2022-08-19T10:36:55;99663.34;;;28.15;46.64
32298;BME280;18782;48.984;8.548;2022-08-19T10:39:27;99667.94;;;28.12;46.12
32298;BME280;18782;48.984;8.548;2022-08-19T10:41:56;99654.56;;;27.80;46.95
32298;BME280;18782;48.984;8.548;2022-08-19T10:44:24;99648.09;;;27.86;46.87
32298;BME280;18782;48.984;8.548;2022-08-19T10:46:58;99660.84;;;27.60;46.00
32298;BME280;18782;48.984;8.548;2022-08-19T10:49:27;99649.00;;;27.50;46.40
32298;BME280;18782;48.984;8.548;2022-08-19T10:51:55;99645.69;;;27.64;47.15
32298;BME280;18782;48.984;8.548;2022-08-19T10:54:46;99643.28;;;27.94;44.79
32298;BME280;18782;48.984;8.548;2022-08-19T10:57:34;99647.94;;;28.06;44.50
32298;BME280;18782;48.984;8.548;2022-08-19T11:00:23;99637.63;;;28.34;44.59
32298;BME280;18782;48.984;8.548;2022-08-19T11:02:51;99639.19;;;28.70;43.58
32298;BME280;18782;48.984;8.548;2022-08-19T11:05:20;99633.78;;;29.05;42.49
32298;BME280;18782;48.984;8.548;2022-08-19T11:07:50;99632.72;;;28.76;41.81
32298;BME280;18782;48.984;8.548;2022-08-19T11:10:18;99631.19;;;28.56;42.45
32298;BME280;18782;48.984;8.548;2022-08-19T11:12:48;99627.03;;;28.34;43.28
32298;BME280;18782;48.984;8.548;2022-08-19T11:15:17;99614.72;;;28.33;43.93
32298;BME280;18782;48.984;8.548;2022-08-19T11:17:44;99614.50;;;28.54;43.54
32298;BME280;18782;48.984;8.548;2022-08-19T11:20:13;99607.78;;;28.96;42.51
32298;BME280;18782;48.984;8.548;2022-08-19T11:22:43;99601.75;;;29.40;40.85
32298;BME280;18782;48.984;8.548;2022-08-19T11:25:13;99598.09;;;29.26;40.48
32298;BME280;18782;48.984;8.548;2022-08-19T11:27:41;99596.44;;;28.94;40.88
32298;BME280;18782;48.984;8.548;2022-08-19T11:30:12;99593.16;;;29.04;41.11
32298;BME280;18782;48.984;8.548;2022-08-19T11:32:40;99595.69;;;29.22;41.44
32298;BME280;18782;48.984;8.548;2022-08-19T11:35:14;99590.50;;;29.20;40.24
32298;BME280;18782;48.984;8.548;2022-08-19T11:37:44;99593.06;;;29.52;40.38
32298;BME280;18782;48.984;8.548;2022-08-19T11:40:11;99596.81;;;29.48;39.84
32298;BME280;18782;48.984;8.548;2022-08-19T11:42:39;99597.25;;;29.56;40.37
32298;BME280;18782;48.984;8.548;2022-08-19T11:45:22;99593.75;;;29.70;40.18
32298;BME280;18782;48.984;8.548;2022-08-19T11:47:50;99596.63;;;29.81;38.90
32298;BME280;18782;48.984;8.548;2022-08-19T11:50:18;99594.38;;;29.89;38.80
32298;BME280;18782;48.984;8.548;2022-08-19T11:52:47;99592.75;;;29.72;39.59
32298;BME280;18782;48.984;8.548;2022-08-19T11:55:16;99596.69;;;29.65;38.69
32298;BME280;18782;48.984;8.548;2022-08-19T11:57:43;99599.38;;;29.49;37.66
32298;BME280;18782;48.984;8.548;2022-08-19T12:00:13;99598.41;;;29.36;38.42
32298;BME280;18782;48.984;8.548;2022-08-19T12:02:41;99597.84;;;29.75;38.49
32298;BME280;18782;48.984;8.548;2022-08-19T12:05:09;99590.72;;;30.34;38.14
32298;BME280;18782;48.984;8.548;2022-08-19T12:07:38;99602.81;;;30.81;36.98
32298;BME280;18782;48.984;8.548;2022-08-19T12:10:09;99611.44;;;30.56;37.40
32298;BME280;18782;48.984;8.548;2022-08-19T12:12:37;99609.53;;;30.01;38.29
32298;BME280;18782;48.984;8.548;2022-08-19T12:15:07;99611.91;;;29.92;39.20
32298;BME280;18782;48.984;8.548;2022-08-19T12:17:37;99619.28;;;29.72;39.59
32298;BME280;18782;48.984;8.548;2022-08-19T12:20:07;99628.31;;;29.54;39.71
32298;BME280;18782;48.984;8.548;2022-08-19T12:22:35;99611.16;;;29.29;40.50
32298;BME280;18782;48.984;8.548;2022-08-19T12:25:04;99607.25;;;28.73;41.29
32298;BME280;18782;48.984;8.548;2022-08-19T12:27:34;99619.69;;;28.40;41.88
32298;BME280;18782;48.984;8.548;2022-08-19T12:30:10;99621.88;;;28.31;42.12
32298;BME280;18782;48.984;8.548;2022-08-19T12:32:39;99613.34;;;28.26;42.91
32298;BME280;18782;48.984;8.548;2022-08-19T12:35:07;99616.59;;;28.31;42.50
32298;BME280;18782;48.984;8.548;2022-08-19T12:37:38;99620.03;;;28.33;42.64
32298;BME280;18782;48.984;8.548;2022-08-19T12:40:22;99620.50;;;28.24;42.78
32298;BME280;18782;48.984;8.548;2022-08-19T12:42:53;99622.69;;;28.16;43.05
32298;BME280;18782;48.984;8.548;2022-08-19T12:45:21;99612.34;;;27.78;42.99
32298;BME280;18782;48.984;8.548;2022-08-19T12:47:49;99619.81;;;27.70;43.28
32298;BME280;18782;48.984;8.548;2022-08-19T12:50:21;99615.56;;;27.49;43.75
32298;BME280;18782;48.984;8.548;2022-08-19T12:52:48;99620.16;;;27.45;44.45
32298;BME280;18782;48.984;8.548;2022-08-19T12:55:16;99618.63;;;27.41;44.21
32298;BME280;18782;48.984;8.548;2022-08-19T12:57:45;99616.97;;;27.21;44.65
32298;BME280;18782;48.984;8.548;2022-08-19T13:00:18;99611.50;;;27.24;44.56
32298;BME280;18782;48.984;8.548;2022-08-19T13:02:48;99612.13;;;27.29;44.03
32298;BME280;18782;48.984;8.548;2022-08-19T13:05:19;99609.34;;;27.33;43.61
32298;BME280;18782;48.984;8.548;2022-08-19T13:07:50;99602.81;;;27.40;43.65
32298;BME280;18782;48.984;8.548;2022-08-19T13:10:19;99594.22;;;27.36;43.86
32298;BME280;18782;48.984;8.548;2022-08-19T13:12:49;99606.25;;;27.42;43.05
32298;BME280;18782;48.984;8.548;2022-08-19T13:15:20;99602.38;;;27.31;43.58
32298;BME280;18782;48.984;8.548;2022-08-19T13:17:51;99604.78;;;27.71;42.33
32298;BME280;18782;48.984;8.548;2022-08-19T13:20:21;99598.72;;;28.68;41.46
32298;BME280;18782;48.984;8.548;2022-08-19T13:22:49;99596.56;;;29.52;40.47